createdAt,value
2023-01-19T00:00:59.959Z,41.50
2023-01-19T00:03:33.559Z,29.90
2023-01-19T00:06:09.980Z,29.20
2023-01-19T00:08:44.857Z,37.20
2023-01-19T00:11:18.103Z,35.30
2023-01-19T00:13:51.183Z,29.60
2023-01-19T00:16:24.094Z,41.50
2023-01-19T00:18:56.475Z,36.50
2023-01-19T00:21:28.775Z,33.80
2023-01-19T00:24:00.986Z,26.40
2023-01-19T00:26:33.200Z,38.90
2023-01-19T00:29:06.978Z,24.20
2023-01-19T00:31:39.841Z,44.60
2023-01-19T00:34:12.081Z,30.00
2023-01-19T00:36:44.642Z,28.50
2023-01-19T00:39:16.958Z,39.30
2023-01-19T00:42:06.541Z,35.80
2023-01-19T00:44:38.781Z,31.60
2023-01-19T00:47:11.011Z,24.00
2023-01-19T00:49:43.409Z,42.70
2023-01-19T00:52:15.581Z,40.60
2023-01-19T00:54:47.767Z,33.40
2023-01-19T00:57:20.360Z,33.80
2023-01-19T00:59:52.670Z,36.80
2023-01-19T01:02:25.050Z,29.70
2023-01-19T01:04:57.423Z,22.80
2023-01-19T01:07:30.136Z,29.30
2023-01-19T01:10:02.333Z,32.00
2023-01-19T01:12:34.545Z,35.90
2023-01-19T01:15:09.115Z,30.90
2023-01-19T01:17:47.346Z,31.70
2023-01-19T01:20:22.570Z,38.90
2023-01-19T01:22:56.747Z,38.90
2023-01-19T01:25:37.609Z,26.30
2023-01-19T01:28:11.483Z,38.80
2023-01-19T01:30:44.205Z,38.80
2023-01-19T01:33:16.440Z,44.90
2023-01-19T01:36:10.258Z,41.00
2023-01-19T01:38:42.843Z,33.20
2023-01-19T01:41:15.918Z,26.90
2023-01-19T01:43:51.004Z,38.30
2023-01-19T01:46:23.665Z,33.00
2023-01-19T01:49:01.906Z,25.70
2023-01-19T01:51:39.794Z,37.00
2023-01-19T01:54:18.026Z,37.10
2023-01-19T01:56:52.720Z,22.60
2023-01-19T01:59:28.472Z,31.40
2023-01-19T02:02:21.789Z,33.90
2023-01-19T02:04:59.970Z,34.80
2023-01-19T02:07:56.514Z,29.40
2023-01-19T02:10:46.251Z,35.30
2023-01-19T02:13:19.762Z,35.60
2023-01-19T02:15:53.864Z,30.40
2023-01-19T02:18:29.051Z,39.10
2023-01-19T02:21:10.925Z,28.50
2023-01-19T02:23:46.462Z,46.20
2023-01-19T02:26:22.018Z,41.70
2023-01-19T02:28:58.582Z,49.20
2023-01-19T02:31:34.149Z,31.90
2023-01-19T02:34:07.962Z,26.40
2023-01-19T02:36:44.400Z,22.70
2023-01-19T02:39:20.505Z,33.60
2023-01-19T02:41:56.091Z,29.30
2023-01-19T02:44:31.290Z,28.00
2023-01-19T02:47:05.337Z,36.30
2023-01-19T02:49:37.843Z,22.10
2023-01-19T02:52:16.556Z,36.60
2023-01-19T02:55:00.373Z,34.00
2023-01-19T02:57:53.961Z,27.70
2023-01-19T03:00:38.456Z,53.10
2023-01-19T03:03:27.205Z,26.20
2023-01-19T03:06:06.818Z,28.10
2023-01-19T03:08:49.615Z,32.00
2023-01-19T03:11:22.041Z,31.20
2023-01-19T03:14:00.977Z,30.00
2023-01-19T03:16:40.960Z,34.20
2023-01-19T03:19:20.274Z,28.80
2023-01-19T03:21:56.620Z,41.60
2023-01-19T03:24:36.901Z,20.70
2023-01-19T03:27:13.401Z,24.20
2023-01-19T03:29:52.942Z,24.60
2023-01-19T03:32:30.320Z,34.30
2023-01-19T03:35:06.994Z,40.20
2023-01-19T03:37:42.375Z,31.40
2023-01-19T03:40:15.830Z,32.50
2023-01-19T03:42:48.764Z,27.50
2023-01-19T03:45:22.766Z,25.60
2023-01-19T03:47:55.935Z,33.80
2023-01-19T03:50:30.781Z,29.70
2023-01-19T03:53:10.686Z,27.50
2023-01-19T03:55:46.176Z,31.80
2023-01-19T03:58:18.840Z,32.90
2023-01-19T04:00:51.120Z,29.70
2023-01-19T04:03:23.442Z,25.10
2023-01-19T04:05:57.685Z,14.40
2023-01-19T04:08:29.978Z,39.00
2023-01-19T04:11:02.502Z,32.00
2023-01-19T04:13:35.072Z,27.40
2023-01-19T04:16:09.055Z,44.40
2023-01-19T04:18:42.286Z,38.20
2023-01-19T04:21:14.530Z,25.30
2023-01-19T04:23:46.965Z,46.80
2023-01-19T04:26:19.246Z,29.50
2023-01-19T04:28:51.653Z,31.20
2023-01-19T04:31:23.888Z,39.40
2023-01-19T04:33:56.978Z,30.00
2023-01-19T04:36:29.409Z,41.40
2023-01-19T04:39:01.693Z,30.30
2023-01-19T04:41:33.921Z,40.20
2023-01-19T04:44:06.577Z,26.40
2023-01-19T04:46:38.862Z,57.10
2023-01-19T04:49:11.654Z,41.10
2023-01-19T04:51:43.917Z,36.30
2023-01-19T04:54:16.484Z,27.30
2023-01-19T04:56:48.907Z,33.00
2023-01-19T04:59:21.674Z,32.80
2023-01-19T05:01:54.059Z,29.80
2023-01-19T05:04:26.909Z,35.10
2023-01-19T05:06:59.454Z,35.10
2023-01-19T05:09:31.672Z,31.60
2023-01-19T05:12:03.901Z,26.90
2023-01-19T05:14:36.111Z,34.50
2023-01-19T05:17:08.619Z,29.50
2023-01-19T05:19:41.161Z,26.60
2023-01-19T05:22:14.119Z,40.80
2023-01-19T05:24:46.293Z,25.80
2023-01-19T05:27:18.664Z,26.70
2023-01-19T05:29:50.862Z,25.80
2023-01-19T05:32:23.084Z,25.20
2023-01-19T05:34:55.391Z,30.70
2023-01-19T05:37:27.788Z,38.20
2023-01-19T05:40:00.154Z,17.80
2023-01-19T05:42:33.023Z,34.90
2023-01-19T05:45:05.713Z,36.40
2023-01-19T05:47:37.993Z,32.30
2023-01-19T05:50:11.988Z,28.50
2023-01-19T05:52:44.769Z,31.90
2023-01-19T05:55:17.480Z,32.00
2023-01-19T05:57:49.837Z,47.50
2023-01-19T06:00:22.968Z,40.10
2023-01-19T06:02:55.364Z,44.20
2023-01-19T06:05:27.683Z,43.90
2023-01-19T06:08:00.664Z,42.60
2023-01-19T06:10:32.836Z,37.00
2023-01-19T06:13:05.242Z,37.60
2023-01-19T06:15:37.710Z,37.00
2023-01-19T06:18:10.128Z,39.30
2023-01-19T06:20:42.393Z,39.60
2023-01-19T06:23:14.846Z,40.60
2023-01-19T06:25:47.149Z,28.80
2023-01-19T06:28:19.890Z,40.60
2023-01-19T06:30:53.597Z,50.20
2023-01-19T06:33:27.781Z,29.50
2023-01-19T06:36:00.100Z,38.10
2023-01-19T06:38:33.062Z,36.20
2023-01-19T06:41:05.747Z,47.40
2023-01-19T06:43:38.046Z,37.90
2023-01-19T06:46:10.363Z,41.80
2023-01-19T06:48:42.616Z,34.60
2023-01-19T06:51:15.063Z,33.20
2023-01-19T06:53:47.902Z,34.00
2023-01-19T06:56:20.264Z,37.50
2023-01-19T06:58:53.392Z,45.90
2023-01-19T07:01:25.792Z,32.10
2023-01-19T07:03:58.171Z,35.80
2023-01-19T07:06:30.397Z,39.80
2023-01-19T07:09:07.195Z,30.90
2023-01-19T07:11:39.405Z,37.30
2023-01-19T07:14:11.986Z,38.20
2023-01-19T07:16:44.340Z,34.10
2023-01-19T07:19:16.839Z,36.80
2023-01-19T07:21:49.269Z,37.70
2023-01-19T07:24:21.968Z,28.60
2023-01-19T07:26:54.221Z,32.30
2023-01-19T07:29:26.811Z,23.50
2023-01-19T07:31:59.117Z,29.90
2023-01-19T07:34:31.598Z,42.60
2023-01-19T07:37:03.920Z,31.70
2023-01-19T07:39:36.873Z,26.40
2023-01-19T07:42:09.889Z,38.80
2023-01-19T07:44:42.177Z,36.70
2023-01-19T07:47:14.505Z,49.30
2023-01-19T07:49:46.786Z,39.80
2023-01-19T07:52:19.350Z,43.80
2023-01-19T07:54:51.828Z,34.60
2023-01-19T07:57:24.260Z,58.80
2023-01-19T07:59:56.649Z,40.10
2023-01-19T08:02:28.969Z,21.80
2023-01-19T08:05:01.236Z,32.40
2023-01-19T08:07:34.097Z,57.20
2023-01-19T08:10:07.004Z,36.30
2023-01-19T08:12:39.290Z,31.80
2023-01-19T08:15:13.138Z,20.50
2023-01-19T08:17:45.544Z,30.50
2023-01-19T08:20:18.820Z,38.00
2023-01-19T08:22:59.991Z,46.50
2023-01-19T08:25:38.360Z,34.30
2023-01-19T08:28:12.428Z,32.40
2023-01-19T08:30:45.291Z,28.10
2023-01-19T08:33:17.971Z,27.60
2023-01-19T08:35:53.104Z,38.50
2023-01-19T08:38:25.460Z,38.60
2023-01-19T08:40:57.709Z,27.20
2023-01-19T08:43:30.122Z,25.30
2023-01-19T08:46:03.807Z,42.80
2023-01-19T08:48:38.688Z,26.90
2023-01-19T08:51:12.239Z,32.70
2023-01-19T08:53:45.019Z,33.20
2023-01-19T08:56:20.349Z,34.00
2023-01-19T09:01:41.586Z,38.10
2023-01-19T09:04:13.977Z,42.10
2023-01-19T09:06:46.297Z,45.40
2023-01-19T09:09:18.773Z,48.00
2023-01-19T09:11:51.106Z,26.70
2023-01-19T09:14:23.364Z,34.80
2023-01-19T09:16:56.362Z,48.50
2023-01-19T09:19:28.752Z,26.00
2023-01-19T09:22:01.066Z,42.00
2023-01-19T09:24:35.135Z,60.90
2023-01-19T09:27:07.571Z,32.30
2023-01-19T09:29:39.853Z,31.70
2023-01-19T09:32:12.190Z,29.40
2023-01-19T09:34:44.662Z,30.00
2023-01-19T09:37:17.394Z,28.30
2023-01-19T09:39:50.079Z,60.90
2023-01-19T09:42:32.516Z,35.40
2023-01-19T09:45:06.481Z,35.10
2023-01-19T09:47:40.280Z,42.20
2023-01-19T09:50:19.398Z,27.80
2023-01-19T09:53:01.538Z,23.40
2023-01-19T09:55:34.281Z,27.60
2023-01-19T09:58:11.255Z,18.00
2023-01-19T10:00:47.884Z,31.80
2023-01-19T10:03:21.464Z,32.30
2023-01-19T10:06:01.213Z,26.70
2023-01-19T10:08:40.368Z,36.10
2023-01-19T10:11:31.851Z,31.90
2023-01-19T10:14:17.906Z,39.50
2023-01-19T10:17:00.166Z,52.70
2023-01-19T10:19:38.049Z,46.30
2023-01-19T10:22:21.670Z,34.70
2023-01-19T10:24:57.358Z,29.20
2023-01-19T10:27:34.326Z,45.80
2023-01-19T10:30:10.299Z,33.90
2023-01-19T10:32:44.610Z,32.80
2023-01-19T10:35:24.563Z,35.80
2023-01-19T10:38:00.240Z,34.40
2023-01-19T10:43:51.055Z,32.30
2023-01-19T10:46:34.773Z,30.10
2023-01-19T10:49:08.348Z,34.50
2023-01-19T10:51:49.924Z,36.60
2023-01-19T10:54:24.463Z,33.60
2023-01-19T10:56:59.487Z,33.20
2023-01-19T10:59:38.310Z,23.90
2023-01-19T11:02:21.227Z,41.40
2023-01-19T11:04:56.281Z,46.40
2023-01-19T11:07:32.687Z,33.00
2023-01-19T11:10:25.092Z,49.20
2023-01-19T11:13:04.200Z,36.10
2023-01-19T11:15:43.939Z,52.30
2023-01-19T11:18:32.975Z,57.10
2023-01-19T11:21:08.384Z,49.20
2023-01-19T11:23:46.703Z,32.50
2023-01-19T11:26:29.103Z,41.50
2023-01-19T11:29:04.510Z,46.50
2023-01-19T11:31:39.338Z,34.30
2023-01-19T11:34:33.178Z,41.10
2023-01-19T11:37:25.026Z,22.20
2023-01-19T11:39:59.949Z,31.10
2023-01-19T11:42:36.631Z,33.00
2023-01-19T11:45:16.620Z,36.80
2023-01-19T11:47:52.611Z,48.10
2023-01-19T11:50:31.042Z,47.80
2023-01-19T11:53:07.378Z,34.90
2023-01-19T11:55:48.279Z,24.20
2023-01-19T11:58:21.797Z,28.90
2023-01-19T12:00:58.180Z,34.40
2023-01-19T12:03:34.283Z,29.10
2023-01-19T12:06:13.199Z,32.00
2023-01-19T12:08:49.342Z,31.00
2023-01-19T12:11:24.627Z,25.00
2023-01-19T12:13:57.052Z,30.50
2023-01-19T12:16:33.002Z,64.90
2023-01-19T12:19:12.379Z,37.20
2023-01-19T12:21:48.190Z,42.60
2023-01-19T12:24:24.833Z,48.20
2023-01-19T12:27:00.095Z,29.60
2023-01-19T12:29:36.045Z,40.30
2023-01-19T12:32:37.005Z,43.60
2023-01-19T12:35:47.369Z,35.30
2023-01-19T12:38:41.464Z,17.70
2023-01-19T12:41:24.750Z,41.20
2023-01-19T12:44:34.284Z,47.70
2023-01-19T12:50:15.210Z,56.70
2023-01-19T12:52:57.229Z,36.90
2023-01-19T12:55:33.398Z,30.70
2023-01-19T12:58:08.583Z,44.20
2023-01-19T13:00:44.017Z,24.70
2023-01-19T13:03:48.262Z,40.90
2023-01-19T13:06:20.544Z,27.60
2023-01-19T13:09:03.185Z,26.50
2023-01-19T13:11:35.533Z,40.20
2023-01-19T13:14:36.519Z,26.60
2023-01-19T13:17:27.282Z,24.10
2023-01-19T13:20:29.648Z,34.70
2023-01-19T13:23:20.118Z,22.10
2023-01-19T13:26:01.433Z,28.60
2023-01-19T13:28:40.703Z,23.30
2023-01-19T13:31:14.399Z,30.60
2023-01-19T13:33:52.530Z,33.70
2023-01-19T13:36:30.529Z,31.90
2023-01-19T13:39:06.598Z,38.60
2023-01-19T13:41:42.490Z,33.30
2023-01-19T13:44:20.865Z,22.70
2023-01-19T13:46:54.699Z,19.80
2023-01-19T13:49:31.861Z,23.60
2023-01-19T13:52:17.080Z,27.90
2023-01-19T13:54:54.203Z,22.00
2023-01-19T13:57:30.789Z,35.00
2023-01-19T14:00:19.167Z,19.20
2023-01-19T14:03:14.933Z,20.60
2023-01-19T14:05:51.401Z,28.30
2023-01-19T14:08:25.821Z,30.30
2023-01-19T14:11:05.109Z,14.90
2023-01-19T14:13:41.761Z,17.50
2023-01-19T14:16:18.655Z,31.80
2023-01-19T14:19:02.561Z,23.40
2023-01-19T14:21:42.738Z,20.50
2023-01-19T14:24:20.586Z,24.00
2023-01-19T14:26:54.874Z,18.90
2023-01-19T14:29:32.603Z,41.80
2023-01-19T14:32:17.434Z,28.60
2023-01-19T14:34:51.883Z,26.60
2023-01-19T14:37:27.322Z,20.60
2023-01-19T14:40:04.872Z,28.60
2023-01-19T14:42:39.842Z,22.40
2023-01-19T14:45:20.905Z,37.60
2023-01-19T14:47:59.706Z,35.30
2023-01-19T14:50:35.805Z,38.80
2023-01-19T14:53:16.267Z,20.20
2023-01-19T14:55:51.002Z,19.20
2023-01-19T14:58:26.425Z,20.50
2023-01-19T15:00:58.794Z,23.00
2023-01-19T15:03:44.259Z,28.30
2023-01-19T15:08:53.428Z,15.30
2023-01-19T15:11:30.414Z,25.00
2023-01-19T15:14:03.660Z,25.30
2023-01-19T15:16:37.265Z,21.50
2023-01-19T15:19:11.075Z,18.40
2023-01-19T15:21:45.381Z,20.50
2023-01-19T15:24:18.170Z,19.10
2023-01-19T15:26:50.685Z,30.40
2023-01-19T15:29:27.264Z,22.00
2023-01-19T15:31:59.605Z,24.40
2023-01-19T15:34:31.964Z,28.00
2023-01-19T15:37:04.533Z,21.10
2023-01-19T15:39:36.988Z,19.70
2023-01-19T15:42:14.140Z,23.10
2023-01-19T15:44:46.563Z,15.30
2023-01-19T15:47:18.847Z,22.60
2023-01-19T15:49:51.081Z,17.10
2023-01-19T15:52:23.473Z,18.00
2023-01-19T15:54:55.719Z,24.00
2023-01-19T15:57:28.161Z,23.10
2023-01-19T16:00:00.462Z,10.90
2023-01-19T16:02:33.505Z,23.20
2023-01-19T16:05:06.171Z,15.00
2023-01-19T16:07:38.505Z,21.00
2023-01-19T16:10:13.057Z,24.90
2023-01-19T16:12:46.704Z,14.80
2023-01-19T16:15:19.892Z,20.10
2023-01-19T16:17:54.640Z,14.90
2023-01-19T16:20:26.909Z,17.70
2023-01-19T16:23:13.875Z,7.40
2023-01-19T16:25:55.995Z,21.10
2023-01-19T16:28:28.775Z,12.00
2023-01-19T16:31:01.157Z,16.40
2023-01-19T16:33:33.399Z,11.20
2023-01-19T16:36:23.750Z,14.60
2023-01-19T16:38:59.650Z,7.40
2023-01-19T16:44:02.659Z,8.20
2023-01-19T16:46:38.487Z,5.50
2023-01-19T16:49:15.986Z,11.10
2023-01-19T16:51:49.057Z,9.60
2023-01-19T16:54:26.033Z,11.80
2023-01-19T16:56:59.428Z,21.80
2023-01-19T16:59:31.774Z,15.90
2023-01-19T17:02:04.474Z,10.20
2023-01-19T17:04:37.122Z,9.00
2023-01-19T17:07:09.545Z,11.80
2023-01-19T17:09:42.031Z,16.80
2023-01-19T17:12:14.421Z,17.00
2023-01-19T17:14:47.620Z,16.30
2023-01-19T17:17:19.992Z,17.40
2023-01-19T17:19:52.350Z,11.40
2023-01-19T17:22:24.905Z,14.80
2023-01-19T17:24:57.373Z,10.90
2023-01-19T17:27:29.653Z,17.30
2023-01-19T17:30:01.860Z,12.70
2023-01-19T17:32:33.892Z,12.00
2023-01-19T17:35:07.186Z,19.30
2023-01-19T17:37:39.540Z,17.80
2023-01-19T17:40:14.004Z,9.80
2023-01-19T17:42:46.627Z,13.90
2023-01-19T17:45:19.177Z,31.10
2023-01-19T17:47:52.818Z,14.30
2023-01-19T17:50:25.162Z,18.10
2023-01-19T17:52:58.467Z,19.60
2023-01-19T17:55:30.783Z,16.90
2023-01-19T17:58:03.178Z,18.10
2023-01-19T18:00:35.565Z,8.80
2023-01-19T18:03:07.866Z,12.40
2023-01-19T18:05:40.154Z,20.80
2023-01-19T18:08:12.520Z,13.40
2023-01-19T18:10:44.734Z,6.70
2023-01-19T18:13:17.037Z,10.20
2023-01-19T18:15:49.457Z,18.20
2023-01-19T18:18:21.810Z,11.70
2023-01-19T18:20:54.438Z,9.30
2023-01-19T18:23:26.607Z,8.50
2023-01-19T18:26:03.277Z,14.20
2023-01-19T18:28:35.557Z,9.10
2023-01-19T18:31:10.302Z,9.70
2023-01-19T18:33:43.431Z,11.40
2023-01-19T18:36:16.345Z,11.60
2023-01-19T18:38:50.136Z,5.50
2023-01-19T18:41:23.748Z,12.80
2023-01-19T18:43:59.832Z,18.80
2023-01-19T18:46:32.210Z,11.10
2023-01-19T18:49:06.828Z,6.70
2023-01-19T18:51:40.625Z,7.90
2023-01-19T18:54:14.003Z,11.60
2023-01-19T18:56:46.257Z,12.90
2023-01-19T18:59:18.593Z,12.60
2023-01-19T19:01:50.970Z,11.40
2023-01-19T19:04:23.515Z,11.00
2023-01-19T19:06:55.883Z,15.20
2023-01-19T19:09:28.306Z,17.20
2023-01-19T19:12:00.807Z,11.70
2023-01-19T19:14:33.290Z,8.30
2023-01-19T19:17:05.557Z,8.80
2023-01-19T19:19:37.876Z,17.40
2023-01-19T19:22:10.309Z,14.90
2023-01-19T19:24:42.740Z,12.30
2023-01-19T19:27:15.124Z,7.60
2023-01-19T19:29:48.983Z,10.90
2023-01-19T19:32:21.560Z,14.30
2023-01-19T19:34:55.865Z,17.90
2023-01-19T19:37:29.564Z,11.20
2023-01-19T19:40:01.890Z,8.90
2023-01-19T19:42:36.686Z,14.10
2023-01-19T19:45:10.985Z,7.40
2023-01-19T19:47:44.076Z,13.40
2023-01-19T19:50:16.815Z,12.90
2023-01-19T19:52:49.086Z,11.00
2023-01-19T19:55:21.585Z,7.10
2023-01-19T19:57:54.993Z,14.90
2023-01-19T20:00:27.600Z,23.50
2023-01-19T20:03:00.041Z,17.50
2023-01-19T20:05:32.506Z,13.70
2023-01-19T20:08:04.724Z,12.20
2023-01-19T20:10:37.632Z,12.10
2023-01-19T20:13:10.024Z,6.90
2023-01-19T20:15:42.594Z,17.20
2023-01-19T20:18:14.904Z,10.50
2023-01-19T20:20:47.304Z,10.00
2023-01-19T20:23:20.143Z,10.30
2023-01-19T20:25:52.411Z,9.90
2023-01-19T20:28:24.842Z,7.60
2023-01-19T20:30:57.071Z,9.90
2023-01-19T20:33:29.384Z,8.00
2023-01-19T20:36:01.658Z,6.60
2023-01-19T20:38:34.284Z,4.50
2023-01-19T20:41:08.269Z,7.60
2023-01-19T20:43:40.911Z,11.20
2023-01-19T20:46:13.689Z,2.00
2023-01-19T20:48:50.866Z,4.40
2023-01-19T20:51:24.372Z,7.40
2023-01-19T20:53:56.612Z,8.50
2023-01-19T20:56:28.869Z,9.90
2023-01-19T20:59:02.898Z,11.20
2023-01-19T21:01:35.474Z,8.70
2023-01-19T21:04:08.440Z,8.20
2023-01-19T21:06:42.148Z,7.00
2023-01-19T21:09:14.798Z,3.10
2023-01-19T21:11:47.282Z,7.10
2023-01-19T21:14:19.615Z,7.60
2023-01-19T21:16:51.918Z,4.90
2023-01-19T21:19:24.352Z,7.10
2023-01-19T21:21:56.515Z,7.00
2023-01-19T21:24:30.624Z,4.10
2023-01-19T21:27:03.027Z,4.20
2023-01-19T21:29:35.354Z,3.30
2023-01-19T21:32:08.426Z,6.00
2023-01-19T21:34:40.907Z,8.00
2023-01-19T21:37:13.249Z,4.60
2023-01-19T21:39:45.705Z,5.80
2023-01-19T21:42:18.543Z,7.60
2023-01-19T21:44:51.674Z,6.90
2023-01-19T21:47:24.001Z,6.80
2023-01-19T21:49:56.395Z,7.20
2023-01-19T21:52:28.856Z,5.10
2023-01-19T21:55:01.125Z,5.50
2023-01-19T21:57:33.339Z,6.40
2023-01-19T22:00:06.976Z,3.00
2023-01-19T22:02:39.462Z,11.20
2023-01-19T22:05:13.100Z,6.00
2023-01-19T22:07:45.533Z,4.00
2023-01-19T22:10:18.588Z,2.60
2023-01-19T22:12:50.864Z,5.00
2023-01-19T22:15:23.147Z,6.10
2023-01-19T22:17:55.430Z,3.20
2023-01-19T22:20:27.666Z,16.50
2023-01-19T22:23:00.022Z,5.80
2023-01-19T22:25:33.438Z,6.00
2023-01-19T22:28:05.845Z,11.00
2023-01-19T22:30:38.049Z,5.50
2023-01-19T22:33:10.366Z,13.70
2023-01-19T22:35:42.749Z,8.00
2023-01-19T22:38:15.245Z,8.60
2023-01-19T22:40:47.538Z,5.60
2023-01-19T22:43:20.074Z,3.40
2023-01-19T22:45:52.343Z,11.20
2023-01-19T22:48:24.631Z,4.60
2023-01-19T22:50:59.929Z,6.40
2023-01-19T22:53:33.474Z,5.70
2023-01-19T22:56:12.869Z,6.00
2023-01-19T22:58:46.152Z,7.30
2023-01-19T23:01:20.067Z,8.30
2023-01-19T23:03:52.964Z,3.80
2023-01-19T23:06:27.128Z,9.10
2023-01-19T23:09:01.287Z,8.80
2023-01-19T23:11:37.049Z,14.30
2023-01-19T23:14:12.496Z,15.80
2023-01-19T23:16:47.143Z,7.70
2023-01-19T23:19:20.376Z,9.30
2023-01-19T23:21:54.757Z,6.20
2023-01-19T23:24:27.114Z,7.20
2023-01-19T23:27:00.543Z,5.50
2023-01-19T23:29:32.870Z,6.90
2023-01-19T23:32:05.423Z,7.80
2023-01-19T23:34:37.750Z,5.70
2023-01-19T23:37:10.035Z,5.70
2023-01-19T23:39:42.707Z,6.30
2023-01-19T23:42:15.084Z,4.10
2023-01-19T23:44:47.401Z,18.00
2023-01-19T23:47:19.698Z,5.20
2023-01-19T23:49:51.904Z,6.90
2023-01-19T23:52:24.397Z,4.80
2023-01-19T23:54:56.687Z,8.00
2023-01-19T23:57:29.032Z,5.20
